createdAt,value
2022-08-19T00:00:16.862Z,1584
2022-08-19T00:01:16.734Z,1653
2022-08-19T00:02:16.730Z,1625
2022-08-19T00:03:16.713Z,1884
2022-08-19T00:05:16.938Z,1614
2022-08-19T00:06:16.710Z,1722
2022-08-19T00:07:16.721Z,1773
2022-08-19T00:08:16.750Z,1872
2022-08-19T00:10:16.913Z,1762
2022-08-19T00:11:18.745Z,1613
2022-08-19T00:12:16.732Z,1832
2022-08-19T00:13:16.719Z,1876
2022-08-19T00:15:16.871Z,1850
2022-08-19T00:16:16.734Z,1633
2022-08-19T00:17:16.720Z,1640
2022-08-19T00:18:16.734Z,1629
2022-08-19T00:20:16.922Z,1759
2022-08-19T00:21:16.744Z,1633
2022-08-19T00:22:16.750Z,1629
2022-08-19T00:23:16.755Z,1854
2022-08-19T00:25:16.914Z,1476
2022-08-19T00:26:16.755Z,1854
2022-08-19T00:27:25.491Z,1596
2022-08-19T00:28:16.724Z,1879
2022-08-19T00:30:16.885Z,1622
2022-08-19T00:31:16.754Z,1863
2022-08-19T00:32:16.752Z,1897
2022-08-19T00:33:16.740Z,1884
2022-08-19T00:35:16.959Z,1863
2022-08-19T00:36:16.750Z,1640
2022-08-19T00:37:16.759Z,1711
2022-08-19T00:38:16.732Z,1900
2022-08-19T00:40:16.886Z,1532
2022-08-19T00:41:16.769Z,1781
2022-08-19T00:42:16.736Z,1728
2022-08-19T00:43:16.731Z,1633
2022-08-19T00:45:16.936Z,1919
2022-08-19T00:46:16.737Z,1661
2022-08-19T00:47:16.746Z,1671
2022-08-19T00:48:16.740Z,1919
2022-08-19T00:50:16.937Z,1884
2022-08-19T00:51:16.744Z,1647
2022-08-19T00:52:16.753Z,1919
2022-08-19T00:53:16.738Z,1614
2022-08-19T00:55:16.899Z,1910
2022-08-19T00:56:16.766Z,1513
2022-08-19T00:57:16.751Z,1895
2022-08-19T00:58:16.767Z,1895
2022-08-19T01:00:16.964Z,1625
2022-08-19T01:01:16.752Z,1895
2022-08-19T01:02:16.755Z,1614
2022-08-19T01:03:16.772Z,1647
2022-08-19T01:05:16.900Z,1884
2022-08-19T01:06:19.806Z,1895
2022-08-19T01:07:17.465Z,1711
2022-08-19T01:08:16.776Z,1643
2022-08-19T01:10:16.892Z,1886
2022-08-19T01:11:16.779Z,1441
2022-08-19T01:12:16.789Z,1633
2022-08-19T01:13:16.749Z,1912
2022-08-19T01:15:16.907Z,1652
2022-08-19T01:16:16.757Z,1959
2022-08-19T01:17:16.760Z,1967
2022-08-19T01:18:16.756Z,1959
2022-08-19T01:20:16.963Z,1984
2022-08-19T01:21:16.767Z,1714
2022-08-19T01:22:16.796Z,1947
2022-08-19T01:23:16.781Z,1984
2022-08-19T01:25:16.917Z,1967
2022-08-19T01:26:16.765Z,1671
2022-08-19T01:27:16.756Z,1916
2022-08-19T01:28:16.770Z,1916
2022-08-19T01:30:16.980Z,1890
2022-08-19T01:31:26.606Z,1626
2022-08-19T01:32:32.125Z,1638
2022-08-19T01:33:16.790Z,1638
2022-08-19T01:35:16.909Z,1879
2022-08-19T01:36:16.764Z,1643
2022-08-19T01:37:25.027Z,1666
2022-08-19T01:38:16.791Z,1610
2022-08-19T01:40:16.977Z,1629
2022-08-19T01:41:16.794Z,1759
2022-08-19T01:42:16.787Z,1916
2022-08-19T01:43:16.761Z,1895
2022-08-19T01:45:16.962Z,1647
2022-08-19T01:46:16.768Z,1890
2022-08-19T01:47:16.776Z,1643
2022-08-19T01:48:16.766Z,1895
2022-08-19T01:50:16.968Z,1643
2022-08-19T01:51:16.776Z,1703
2022-08-19T01:52:16.768Z,1825
2022-08-19T01:53:16.779Z,1990
2022-08-19T01:55:16.924Z,1676
2022-08-19T01:56:16.777Z,1860
2022-08-19T01:57:16.799Z,1879
2022-08-19T01:58:16.769Z,1600
2022-08-19T02:00:16.972Z,1626
2022-08-19T02:01:16.808Z,1967
2022-08-19T02:02:16.777Z,1884
2022-08-19T02:03:16.801Z,1928
2022-08-19T02:05:16.927Z,1895
2022-08-19T02:06:16.770Z,1508
2022-08-19T02:07:16.802Z,1676
2022-08-19T02:08:16.783Z,1697
2022-08-19T02:10:16.980Z,1676
2022-08-19T02:11:16.784Z,1928
2022-08-19T02:12:16.804Z,1974
2022-08-19T02:13:16.785Z,1936
2022-08-19T02:15:16.984Z,1653
2022-08-19T02:16:16.810Z,1706
2022-08-19T02:17:16.808Z,1939
2022-08-19T02:18:16.817Z,1947
2022-08-19T02:20:16.980Z,1962
2022-08-19T02:21:16.784Z,1900
2022-08-19T02:22:16.793Z,1884
2022-08-19T02:23:16.783Z,1653
2022-08-19T02:25:16.984Z,1884
2022-08-19T02:26:16.786Z,1884
2022-08-19T02:27:16.809Z,1633
2022-08-19T02:28:18.873Z,1860
2022-08-19T02:30:16.940Z,1855
2022-08-19T02:31:16.789Z,1691
2022-08-19T02:32:16.819Z,1697
2022-08-19T02:33:16.797Z,1928
2022-08-19T02:35:16.946Z,1967
2022-08-19T02:36:16.818Z,1656
2022-08-19T02:37:16.815Z,1682
2022-08-19T02:38:16.831Z,1701
2022-08-19T02:40:17.014Z,1662
2022-08-19T02:41:16.798Z,1653
2022-08-19T02:42:16.800Z,1676
2022-08-19T02:43:16.803Z,1950
2022-08-19T02:45:16.992Z,1928
2022-08-19T02:46:16.824Z,1928
2022-08-19T02:47:16.832Z,1962
2022-08-19T02:48:21.107Z,1647
2022-08-19T02:50:16.999Z,1647
2022-08-19T02:51:16.797Z,1676
2022-08-19T02:52:16.821Z,1653
2022-08-19T02:53:16.859Z,1666
2022-08-19T02:55:17.028Z,1950
2022-08-19T02:56:16.802Z,1600
2022-08-19T02:57:16.830Z,1855
2022-08-19T02:58:16.812Z,1872
2022-08-19T03:00:17.026Z,1590
2022-08-19T03:01:16.884Z,1703
2022-08-19T03:02:16.802Z,1741
2022-08-19T03:03:16.832Z,1881
2022-08-19T03:05:16.958Z,1956
2022-08-19T03:06:16.829Z,1895
2022-08-19T03:07:16.815Z,1895
2022-08-19T03:08:16.821Z,1644
2022-08-19T03:10:17.010Z,1912
2022-08-19T03:11:16.826Z,1671
2022-08-19T03:12:16.821Z,1658
2022-08-19T03:13:16.837Z,1644
2022-08-19T03:15:16.976Z,1458
2022-08-19T03:16:16.820Z,1936
2022-08-19T03:17:16.832Z,1947
2022-08-19T03:18:17.954Z,1674
2022-08-19T03:20:16.971Z,1687
2022-08-19T03:21:16.844Z,1872
2022-08-19T03:22:16.854Z,1902
2022-08-19T03:23:16.841Z,1872
2022-08-19T03:25:17.015Z,1609
2022-08-19T03:26:17.184Z,1564
2022-08-19T03:27:16.853Z,1850
2022-08-19T03:28:16.847Z,1635
2022-08-19T03:30:17.013Z,1464
2022-08-19T03:31:42.259Z,1902
2022-08-19T03:32:27.931Z,1912
2022-08-19T03:33:18.238Z,1658
2022-08-19T03:35:16.979Z,1676
2022-08-19T03:36:16.848Z,1528
2022-08-19T03:37:16.824Z,1581
2022-08-19T03:38:16.832Z,1835
2022-08-19T03:40:17.052Z,1890
2022-08-19T03:41:16.841Z,1884
2022-08-19T03:42:33.297Z,1748
2022-08-19T03:43:16.860Z,1892
2022-08-19T03:45:17.029Z,1860
2022-08-19T03:46:16.822Z,1776
2022-08-19T03:47:16.833Z,1644
2022-08-19T03:48:16.861Z,1670
2022-08-19T03:50:16.977Z,1915
2022-08-19T03:51:16.856Z,1884
2022-08-19T03:52:16.865Z,1900
2022-08-19T03:53:16.859Z,1928
2022-08-19T03:55:17.025Z,1609
2022-08-19T03:56:16.830Z,1950
2022-08-19T03:57:16.836Z,1950
2022-08-19T03:58:16.840Z,1838
2022-08-19T04:00:17.062Z,1755
2022-08-19T04:01:16.893Z,1907
2022-08-19T04:02:16.837Z,1614
2022-08-19T04:03:16.861Z,1633
2022-08-19T04:05:17.069Z,1907
2022-08-19T04:06:16.867Z,1962
2022-08-19T04:07:16.894Z,1982
2022-08-19T04:08:16.841Z,1596
2022-08-19T04:10:16.993Z,1840
2022-08-19T04:11:16.865Z,1916
2022-08-19T04:12:16.872Z,1936
2022-08-19T04:13:16.875Z,1635
2022-08-19T04:15:16.996Z,1947
2022-08-19T04:16:16.835Z,1537
2022-08-19T04:17:16.848Z,1835
2022-08-19T04:18:16.852Z,1895
2022-08-19T04:20:17.036Z,1886
2022-08-19T04:21:16.851Z,1931
2022-08-19T04:22:16.857Z,1979
2022-08-19T04:23:16.864Z,1613
2022-08-19T04:25:17.054Z,1618
2022-08-19T04:26:16.878Z,1682
2022-08-19T04:27:16.889Z,1635
2022-08-19T04:28:16.856Z,1910
2022-08-19T04:30:17.008Z,1982
2022-08-19T04:31:16.847Z,1652
2022-08-19T04:32:16.853Z,1755
2022-08-19T04:33:16.864Z,1865
2022-08-19T04:35:19.379Z,1897
2022-08-19T04:36:16.857Z,1666
2022-08-19T04:37:16.875Z,1967
2022-08-19T04:38:16.883Z,1902
2022-08-19T04:40:17.011Z,1897
2022-08-19T04:41:16.853Z,1784
2022-08-19T04:42:16.881Z,1890
2022-08-19T04:43:16.877Z,1915
2022-08-19T04:45:17.474Z,1865
2022-08-19T04:46:39.759Z,1881
2022-08-19T04:47:16.864Z,1626
2022-08-19T04:48:19.980Z,1850
2022-08-19T04:50:17.060Z,1653
2022-08-19T04:51:16.863Z,1860
2022-08-19T04:52:16.867Z,1922
2022-08-19T04:53:16.891Z,1827
2022-08-19T04:55:17.062Z,1658
2022-08-19T04:56:16.867Z,1876
2022-08-19T04:57:16.880Z,1499
2022-08-19T04:58:16.867Z,1931
2022-08-19T05:00:17.016Z,1613
2022-08-19T05:01:16.974Z,1661
2022-08-19T05:02:16.898Z,1964
2022-08-19T05:03:16.899Z,1950
2022-08-19T05:05:17.041Z,1902
2022-08-19T05:06:16.877Z,1625
2022-08-19T05:07:16.901Z,1876
2022-08-19T05:08:16.877Z,1625
2022-08-19T05:10:17.096Z,1588
2022-08-19T05:11:16.889Z,1928
2022-08-19T05:12:16.910Z,1638
2022-08-19T05:13:16.889Z,1666
2022-08-19T05:15:17.083Z,1890
2022-08-19T05:16:16.870Z,1876
2022-08-19T05:17:27.453Z,1679
2022-08-19T05:18:16.902Z,1491
2022-08-19T05:20:17.102Z,1952
2022-08-19T05:21:16.873Z,1603
2022-08-19T05:22:16.909Z,1912
2022-08-19T05:23:20.685Z,1653
2022-08-19T05:25:17.034Z,1682
2022-08-19T05:26:16.892Z,1939
2022-08-19T05:27:16.914Z,1658
2022-08-19T05:28:16.898Z,1733
2022-08-19T05:30:17.105Z,1745
2022-08-19T05:31:16.891Z,1801
2022-08-19T05:32:16.881Z,2128
2022-08-19T05:33:16.914Z,1840
2022-08-19T05:35:17.081Z,2074
2022-08-19T05:36:16.913Z,2086
2022-08-19T05:37:16.887Z,2104
2022-08-19T05:38:16.923Z,2104
2022-08-19T05:40:17.115Z,2128
2022-08-19T05:41:16.886Z,2066
2022-08-19T05:42:16.945Z,1741
2022-08-19T05:43:16.911Z,2086
2022-08-19T05:45:17.092Z,2112
2022-08-19T05:46:16.913Z,1987
2022-08-19T05:47:16.909Z,2030
2022-08-19T05:48:16.892Z,2074
2022-08-19T05:50:17.040Z,1854
2022-08-19T05:51:16.893Z,2122
2022-08-19T05:52:18.765Z,2158
2022-08-19T05:53:16.919Z,2134
2022-08-19T05:55:17.089Z,2174
2022-08-19T05:56:16.895Z,2030
2022-08-19T05:57:16.904Z,2074
2022-08-19T05:58:16.901Z,1662
2022-08-19T06:00:19.476Z,2080
2022-08-19T06:01:16.908Z,1959
2022-08-19T06:02:16.935Z,1684
2022-08-19T06:03:16.901Z,1633
2022-08-19T06:05:17.101Z,1967
2022-08-19T06:06:16.905Z,1912
2022-08-19T06:07:16.913Z,1741
2022-08-19T06:08:16.933Z,1741
2022-08-19T06:10:17.055Z,2021
2022-08-19T06:11:16.912Z,1928
2022-08-19T06:12:16.933Z,1916
2022-08-19T06:13:16.912Z,1769
2022-08-19T06:15:17.114Z,1928
2022-08-19T06:16:16.939Z,1922
2022-08-19T06:17:16.916Z,1933
2022-08-19T06:18:16.923Z,1610
2022-08-19T06:20:17.109Z,1622
2022-08-19T06:21:16.931Z,1640
2022-08-19T06:22:16.909Z,1505
2022-08-19T06:23:17.155Z,1812
2022-08-19T06:25:17.110Z,1832
2022-08-19T06:26:16.934Z,1781
2022-08-19T06:27:16.942Z,1443
2022-08-19T06:28:17.373Z,1714
2022-08-19T06:30:17.069Z,1694
2022-08-19T06:31:16.944Z,1653
2022-08-19T06:32:16.914Z,1653
2022-08-19T06:33:16.925Z,1395
2022-08-19T06:35:17.075Z,1302
2022-08-19T06:36:16.945Z,1613
2022-08-19T06:37:16.929Z,1388
2022-08-19T06:38:16.935Z,1590
2022-08-19T06:40:17.110Z,1354
2022-08-19T06:41:16.952Z,1508
2022-08-19T06:42:16.927Z,1485
2022-08-19T06:43:16.933Z,1306
2022-08-19T06:45:17.127Z,1268
2022-08-19T06:46:16.953Z,1406
2022-08-19T06:47:23.244Z,1170
2022-08-19T06:48:16.939Z,1378
2022-08-19T06:50:17.160Z,1401
2022-08-19T06:51:19.167Z,1422
2022-08-19T06:52:17.016Z,1165
2022-08-19T06:53:16.951Z,1341
2022-08-19T06:55:17.150Z,1358
2022-08-19T06:56:16.953Z,1330
2022-08-19T06:57:16.926Z,1330
2022-08-19T06:58:16.954Z,1337
2022-08-19T07:00:17.186Z,1345
2022-08-19T07:01:16.966Z,1131
2022-08-19T07:03:17.285Z,1345
2022-08-19T07:06:41.413Z,400
2022-08-19T07:07:19.823Z,569
2022-08-19T07:08:17.318Z,400
2022-08-19T07:10:17.441Z,605
2022-08-19T07:11:17.252Z,617
2022-08-19T07:12:17.275Z,668
2022-08-19T07:13:17.251Z,715
2022-08-19T07:15:17.431Z,624
2022-08-19T07:16:17.255Z,401
2022-08-19T07:17:17.265Z,433
2022-08-19T07:18:17.259Z,443
2022-08-19T07:20:17.453Z,611
2022-08-19T07:21:17.226Z,578
2022-08-19T07:22:17.391Z,542
2022-08-19T07:23:17.271Z,600
2022-08-19T07:25:17.425Z,565
2022-08-19T07:26:17.243Z,657
2022-08-19T07:27:17.262Z,653
2022-08-19T07:28:23.881Z,461
2022-08-19T07:30:17.435Z,456
2022-08-19T07:31:19.394Z,657
2022-08-19T07:32:17.242Z,456
2022-08-19T07:33:17.259Z,657
2022-08-19T07:35:17.431Z,617
2022-08-19T07:36:17.254Z,715
2022-08-19T07:37:17.280Z,715
2022-08-19T07:38:17.262Z,580
2022-08-19T07:40:17.516Z,488
2022-08-19T07:41:17.253Z,643
2022-08-19T07:42:17.262Z,649
2022-08-19T07:43:17.979Z,643
2022-08-19T07:45:17.469Z,466
2022-08-19T07:46:17.249Z,575
2022-08-19T07:47:47.241Z,400
2022-08-19T07:48:17.242Z,463
2022-08-19T07:50:17.475Z,726
2022-08-19T07:51:17.244Z,752
2022-08-19T07:52:17.273Z,759
2022-08-19T07:53:17.287Z,744
2022-08-19T07:55:40.810Z,778
2022-08-19T07:56:17.299Z,553
2022-08-19T07:57:17.271Z,574
2022-08-19T07:58:17.313Z,594
2022-08-19T08:00:20.342Z,783
2022-08-19T08:01:17.281Z,853
2022-08-19T08:02:17.280Z,810
2022-08-19T08:03:17.276Z,675
2022-08-19T08:05:17.474Z,778
2022-08-19T08:06:17.287Z,740
2022-08-19T08:07:17.288Z,719
2022-08-19T08:08:17.281Z,656
2022-08-19T08:10:20.063Z,418
2022-08-19T08:11:17.566Z,634
2022-08-19T08:12:30.914Z,612
2022-08-19T08:13:17.292Z,584
2022-08-19T08:15:17.453Z,617
2022-08-19T08:16:17.280Z,599
2022-08-19T08:17:17.257Z,564
2022-08-19T08:18:17.292Z,566
2022-08-19T08:20:17.487Z,426
2022-08-19T08:21:17.289Z,624
2022-08-19T08:22:17.288Z,551
2022-08-19T08:23:17.298Z,561
2022-08-19T08:25:17.493Z,400
2022-08-19T08:26:17.313Z,486
2022-08-19T08:27:17.267Z,627
2022-08-19T08:28:17.838Z,641
2022-08-19T08:30:17.491Z,589
2022-08-19T08:31:17.277Z,553
2022-08-19T08:32:17.289Z,548
2022-08-19T08:33:17.340Z,591
2022-08-19T08:35:17.592Z,425
2022-08-19T08:36:17.273Z,400
2022-08-19T08:37:17.285Z,403
2022-08-19T08:38:17.302Z,761
2022-08-19T08:40:17.639Z,561
2022-08-19T08:41:17.351Z,570
2022-08-19T08:42:17.646Z,800
2022-08-19T08:43:17.281Z,855
2022-08-19T08:45:17.500Z,614
2022-08-19T08:46:19.191Z,612
2022-08-19T08:47:17.288Z,617
2022-08-19T08:48:22.113Z,925
2022-08-19T08:50:17.562Z,754
2022-08-19T08:51:20.227Z,749
2022-08-19T08:52:17.308Z,1171
2022-08-19T08:53:17.283Z,1195
2022-08-19T08:55:17.506Z,1330
2022-08-19T08:56:18.412Z,1400
2022-08-19T08:57:17.287Z,1530
2022-08-19T08:58:17.309Z,1621
2022-08-19T09:00:17.519Z,1754
2022-08-19T09:01:17.318Z,1630
2022-08-19T09:02:17.318Z,1238
2022-08-19T09:03:17.322Z,1238
2022-08-19T09:05:17.495Z,1990
2022-08-19T09:06:17.399Z,2247
2022-08-19T09:07:18.263Z,2265
2022-08-19T09:08:17.312Z,2374
2022-08-19T09:10:17.726Z,1835
2022-08-19T09:11:42.281Z,2598
2022-08-19T09:12:17.372Z,2783
2022-08-19T09:13:17.296Z,2954
2022-08-19T09:15:17.519Z,3384
2022-08-19T09:16:17.321Z,3898
2022-08-19T09:17:17.317Z,3934
2022-08-19T09:18:19.171Z,4315
2022-08-19T09:20:17.548Z,3167
2022-08-19T09:21:17.352Z,3092
2022-08-19T09:22:19.969Z,5030
2022-08-19T09:23:17.297Z,4926
2022-08-19T09:25:17.505Z,5222
2022-08-19T09:26:17.328Z,3525
2022-08-19T09:27:18.356Z,4250
2022-08-19T09:28:22.257Z,4364
2022-08-19T09:30:17.586Z,4513
2022-08-19T09:31:17.307Z,6862
2022-08-19T09:32:26.136Z,4870
2022-08-19T09:33:17.339Z,7582
2022-08-19T09:35:17.515Z,7567
2022-08-19T09:36:21.721Z,7761
2022-08-19T09:37:17.336Z,7992
2022-08-19T09:38:17.335Z,7752
2022-08-19T09:40:17.631Z,7877
2022-08-19T09:41:17.339Z,7900
2022-08-19T09:42:20.269Z,5222
2022-08-19T09:43:32.884Z,5409
2022-08-19T09:45:17.513Z,5152
2022-08-19T09:46:18.323Z,7582
2022-08-19T09:47:17.352Z,5435
2022-08-19T09:48:18.980Z,7992
2022-08-19T09:50:17.530Z,7271
2022-08-19T09:51:17.314Z,7504
2022-08-19T09:52:17.336Z,5353
2022-08-19T09:53:17.345Z,5353
2022-08-19T09:55:17.537Z,7490
2022-08-19T09:56:17.343Z,7907
2022-08-19T09:57:17.358Z,7560
2022-08-19T09:58:17.376Z,5435
2022-08-19T10:00:17.519Z,6016
2022-08-19T10:01:17.371Z,6454
2022-08-19T10:02:22.108Z,6719
2022-08-19T10:03:17.321Z,6134
2022-08-19T10:05:18.246Z,5069
2022-08-19T10:06:17.476Z,7761
2022-08-19T10:07:17.317Z,5620
2022-08-19T10:08:17.328Z,7992
2022-08-19T10:10:17.518Z,5566
2022-08-19T10:11:27.622Z,4565
2022-08-19T10:12:17.806Z,6666
2022-08-19T10:13:17.394Z,6751
2022-08-19T10:15:17.549Z,6751
2022-08-19T10:16:17.351Z,7992
2022-08-19T10:17:18.391Z,7746
2022-08-19T10:18:17.351Z,7648
2022-08-19T10:20:17.520Z,6770
2022-08-19T10:21:17.362Z,5734
2022-08-19T10:22:17.350Z,7753
2022-08-19T10:23:17.360Z,7985
2022-08-19T10:25:17.549Z,7167
2022-08-19T10:26:17.356Z,4964
2022-08-19T10:27:17.353Z,5531
2022-08-19T10:28:19.119Z,4840
2022-08-19T10:30:17.548Z,5674
2022-08-19T10:31:17.360Z,7791
2022-08-19T10:32:17.361Z,7469
2022-08-19T10:33:36.535Z,7791
2022-08-19T10:35:21.123Z,5087
2022-08-19T10:36:17.366Z,5420
2022-08-19T10:37:23.454Z,7490
2022-08-19T10:38:17.372Z,7605
2022-08-19T10:40:17.584Z,5702
2022-08-19T10:41:17.337Z,7391
2022-08-19T10:42:17.375Z,5152
2022-08-19T10:43:17.346Z,7861
2022-08-19T10:45:17.564Z,5572
2022-08-19T10:46:17.376Z,5767
2022-08-19T10:47:24.543Z,7854
2022-08-19T10:48:17.387Z,7985
2022-08-19T10:50:17.571Z,7656
2022-08-19T10:51:22.507Z,7992
2022-08-19T10:52:19.429Z,5531
2022-08-19T10:53:17.375Z,7992
2022-08-19T10:55:17.559Z,7250
2022-08-19T10:56:17.345Z,7992
2022-08-19T10:57:17.404Z,5986
2022-08-19T10:58:17.381Z,5641
2022-08-19T11:00:17.554Z,7854
2022-08-19T11:01:17.375Z,7398
2022-08-19T11:02:17.346Z,7208
2022-08-19T11:03:17.374Z,5658
2022-08-19T11:05:17.576Z,7612
2022-08-19T11:06:17.352Z,7813
2022-08-19T11:07:17.373Z,5593
2022-08-19T11:08:22.706Z,5826
2022-08-19T11:10:21.362Z,7992
2022-08-19T11:11:17.383Z,7612
2022-08-19T11:12:17.377Z,5504
2022-08-19T11:13:17.386Z,6891
2022-08-19T11:15:17.561Z,7612
2022-08-19T11:16:17.383Z,5723
2022-08-19T11:17:17.380Z,5873
2022-08-19T11:18:17.378Z,7985
2022-08-19T11:20:17.562Z,7876
2022-08-19T11:21:17.389Z,5696
2022-08-19T11:22:17.365Z,7597
2022-08-19T11:23:17.406Z,7730
2022-08-19T11:25:17.570Z,7730
2022-08-19T11:26:17.377Z,7664
2022-08-19T11:27:17.387Z,7892
2022-08-19T11:28:17.361Z,5307
2022-08-19T11:30:17.584Z,7992
2022-08-19T11:31:17.414Z,6842
2022-08-19T11:32:17.382Z,6654
2022-08-19T11:33:17.366Z,4992
2022-08-19T11:35:17.588Z,7685
2022-08-19T11:36:17.400Z,6273
2022-08-19T11:37:17.394Z,6951
2022-08-19T11:38:17.400Z,6951
2022-08-19T11:40:17.679Z,6951
2022-08-19T11:41:17.378Z,7641
2022-08-19T11:42:17.404Z,6991
2022-08-19T11:43:17.405Z,5734
2022-08-19T11:45:17.564Z,5981
2022-08-19T11:46:17.374Z,7670
2022-08-19T11:47:17.400Z,5838
2022-08-19T11:48:17.365Z,7791
2022-08-19T11:50:17.637Z,7854
2022-08-19T11:51:17.402Z,5794
2022-08-19T11:52:17.408Z,7612
2022-08-19T11:53:17.396Z,5794
2022-08-19T11:55:17.587Z,7612
2022-08-19T11:56:17.411Z,5946
2022-08-19T11:57:17.375Z,7992
2022-08-19T11:58:18.681Z,7051
2022-08-19T12:00:17.603Z,7490
2022-08-19T12:01:17.416Z,7161
2022-08-19T12:02:17.426Z,5772
2022-08-19T12:03:17.378Z,7715
2022-08-19T12:05:17.578Z,7715
2022-08-19T12:06:17.390Z,7715
2022-08-19T12:07:17.414Z,7832
2022-08-19T12:08:17.423Z,7497
2022-08-19T12:10:19.021Z,7985
2022-08-19T12:11:17.392Z,7612
2022-08-19T12:12:17.412Z,7715
2022-08-19T12:13:17.384Z,7715
2022-08-19T12:15:17.595Z,7612
2022-08-19T12:16:17.413Z,7730
2022-08-19T12:17:17.422Z,7877
2022-08-19T12:18:17.412Z,7985
2022-08-19T12:20:17.617Z,7877
2022-08-19T12:21:17.461Z,7648
2022-08-19T12:22:17.415Z,5935
2022-08-19T12:23:17.453Z,7753
2022-08-19T12:25:17.604Z,5843
2022-08-19T12:26:17.420Z,7306
2022-08-19T12:27:20.297Z,7306
2022-08-19T12:28:17.404Z,5430
2022-08-19T12:30:17.602Z,7753
2022-08-19T12:31:17.429Z,7753
2022-08-19T12:32:17.421Z,7545
2022-08-19T12:33:17.423Z,7545
2022-08-19T12:35:17.605Z,7656
2022-08-19T12:36:17.462Z,7753
2022-08-19T12:37:17.426Z,6997
2022-08-19T12:38:17.395Z,7984
2022-08-19T12:40:17.682Z,7510
2022-08-19T12:41:17.428Z,7510
2022-08-19T12:42:17.425Z,7510
2022-08-19T12:43:17.439Z,7426
2022-08-19T12:45:17.605Z,7752
2022-08-19T12:46:17.433Z,6117
2022-08-19T12:47:17.419Z,5187
2022-08-19T12:48:33.063Z,6938
2022-08-19T12:50:17.610Z,7992
2022-08-19T12:51:17.427Z,6770
2022-08-19T12:52:19.938Z,5252
2022-08-19T12:53:17.427Z,6862
2022-08-19T12:55:17.631Z,5478
2022-08-19T12:56:20.043Z,7038
2022-08-19T12:57:17.436Z,5478
2022-08-19T12:58:17.435Z,7038
2022-08-19T13:00:17.636Z,6862
2022-08-19T13:01:17.550Z,5566
2022-08-19T13:02:17.453Z,5083
2022-08-19T13:03:17.428Z,7168
2022-08-19T13:05:17.644Z,7454
2022-08-19T13:06:19.447Z,5242
2022-08-19T13:07:17.476Z,7146
2022-08-19T13:08:17.434Z,7146
2022-08-19T13:10:17.631Z,6757
2022-08-19T13:11:17.449Z,7369
2022-08-19T13:12:17.434Z,7271
2022-08-19T13:13:17.412Z,7168
2022-08-19T13:15:19.400Z,7079
2022-08-19T13:16:17.443Z,7257
2022-08-19T13:17:17.415Z,7146
2022-08-19T13:18:17.440Z,7146
2022-08-19T13:20:17.640Z,5476
2022-08-19T13:21:17.434Z,7052
2022-08-19T13:22:17.469Z,7257
2022-08-19T13:23:17.417Z,5476
2022-08-19T13:25:17.633Z,6931
2022-08-19T13:26:17.468Z,6823
2022-08-19T13:27:17.424Z,7052
2022-08-19T13:28:17.454Z,6823
2022-08-19T13:30:17.633Z,5197
2022-08-19T13:31:17.451Z,6998
2022-08-19T13:32:17.693Z,7419
2022-08-19T13:33:17.458Z,5466
2022-08-19T13:35:17.650Z,7092
2022-08-19T13:36:17.459Z,5197
2022-08-19T13:37:17.441Z,4870
2022-08-19T13:38:17.450Z,6784
2022-08-19T13:40:17.702Z,6479
2022-08-19T13:41:17.492Z,5242
2022-08-19T13:42:17.426Z,6843
2022-08-19T13:43:22.663Z,6757
2022-08-19T13:45:17.664Z,6757
2022-08-19T13:46:17.471Z,7701
2022-08-19T13:47:17.460Z,5745
2022-08-19T13:48:17.466Z,7181
2022-08-19T13:50:17.653Z,7313
2022-08-19T13:51:17.451Z,7524
2022-08-19T13:52:17.495Z,5844
2022-08-19T13:53:17.532Z,7327
2022-08-19T13:55:24.679Z,6105
2022-08-19T13:56:17.472Z,7011
2022-08-19T13:57:17.457Z,6516
2022-08-19T13:58:17.468Z,6699
2022-08-19T14:00:17.662Z,6810
2022-08-19T14:01:17.471Z,7052
2022-08-19T14:02:17.435Z,6732
2022-08-19T14:03:17.448Z,5065
2022-08-19T14:05:17.643Z,7146
2022-08-19T14:06:17.483Z,6454
2022-08-19T14:07:17.470Z,5951
2022-08-19T14:08:17.507Z,7604
2022-08-19T14:10:17.648Z,7299
2022-08-19T14:11:17.468Z,5001
2022-08-19T14:12:17.483Z,7133
2022-08-19T14:13:17.465Z,7243
2022-08-19T14:15:17.665Z,5815
2022-08-19T14:16:17.472Z,5232
2022-08-19T14:17:17.480Z,6770
2022-08-19T14:18:17.481Z,6492
2022-08-19T14:20:18.650Z,6575
2022-08-19T14:21:17.494Z,6885
2022-08-19T14:22:21.980Z,5526
2022-08-19T14:23:17.487Z,6790
2022-08-19T14:25:17.671Z,5526
2022-08-19T14:26:17.522Z,6931
2022-08-19T14:27:17.494Z,5242
2022-08-19T14:28:17.451Z,6809
2022-08-19T14:30:17.655Z,6706
2022-08-19T14:31:17.455Z,6810
2022-08-19T14:32:17.462Z,6597
2022-08-19T14:33:17.475Z,6418
2022-08-19T14:35:17.669Z,6516
2022-08-19T14:36:17.491Z,4983
2022-08-19T14:37:17.453Z,6719
2022-08-19T14:38:17.495Z,6810
2022-08-19T14:40:17.696Z,6945
2022-08-19T14:41:17.463Z,6732
2022-08-19T14:42:17.481Z,6555
2022-08-19T14:43:17.513Z,5197
2022-08-19T14:45:17.660Z,6454
2022-08-19T14:46:17.508Z,6674
2022-08-19T14:47:17.464Z,6479
2022-08-19T14:48:18.935Z,5430
2022-08-19T14:50:17.957Z,6674
2022-08-19T14:51:17.466Z,6790
2022-08-19T14:52:17.493Z,5252
2022-08-19T14:53:17.488Z,6984
2022-08-19T14:55:17.672Z,6885
2022-08-19T14:56:17.481Z,4684
2022-08-19T14:57:17.489Z,4266
2022-08-19T14:58:28.736Z,6145
2022-08-19T15:00:17.681Z,5815
2022-08-19T15:01:17.537Z,5935
2022-08-19T15:02:20.275Z,4675
2022-08-19T15:03:17.495Z,6177
2022-08-19T15:05:17.695Z,5620
2022-08-19T15:06:17.475Z,5884
2022-08-19T15:07:17.505Z,4684
2022-08-19T15:08:17.514Z,4578
2022-08-19T15:10:17.688Z,6225
2022-08-19T15:11:17.484Z,4963
2022-08-19T15:12:21.901Z,4323
2022-08-19T15:13:17.502Z,4323
2022-08-19T15:15:17.683Z,5526
2022-08-19T15:16:17.769Z,5884
2022-08-19T15:17:17.537Z,5065
2022-08-19T15:18:17.514Z,4410
2022-08-19T15:20:17.745Z,5647
2022-08-19T15:21:17.512Z,5466
2022-08-19T15:22:17.515Z,6177
2022-08-19T15:23:17.521Z,6105
2022-08-19T15:25:17.697Z,6261
2022-08-19T15:26:17.482Z,4348
2022-08-19T15:27:17.498Z,5182
2022-08-19T15:28:17.535Z,5182
2022-08-19T15:30:17.726Z,5252
2022-08-19T15:31:25.150Z,4218
2022-08-19T15:32:17.522Z,5861
2022-08-19T15:33:17.487Z,5327
2022-08-19T15:35:17.690Z,4162
2022-08-19T15:36:18.836Z,5599
2022-08-19T15:37:17.520Z,5838
2022-08-19T15:38:17.534Z,5745
2022-08-19T15:40:17.788Z,4278
2022-08-19T15:41:17.521Z,4816
2022-08-19T15:42:22.570Z,3854
2022-08-19T15:43:17.503Z,4883
2022-08-19T15:45:17.709Z,4752
2022-08-19T15:46:17.512Z,5045
2022-08-19T15:47:17.505Z,4983
2022-08-19T15:48:17.531Z,4983
2022-08-19T15:50:17.696Z,4748
2022-08-19T15:51:17.528Z,4644
2022-08-19T15:52:17.494Z,3489
2022-08-19T15:53:17.528Z,4170
2022-08-19T15:55:19.269Z,4526
2022-08-19T15:56:17.536Z,4534
2022-08-19T15:57:17.539Z,4478
2022-08-19T15:58:20.488Z,4372
2022-08-19T16:00:17.729Z,3249
2022-08-19T16:01:17.790Z,4290
2022-08-19T16:02:17.549Z,3660
2022-08-19T16:03:17.515Z,4242
2022-08-19T16:05:17.718Z,3179
2022-08-19T16:06:17.546Z,3923
2022-08-19T16:07:22.295Z,3427
2022-08-19T16:08:17.560Z,3569
2022-08-19T16:10:18.743Z,3666
2022-08-19T16:11:19.993Z,3047
2022-08-19T16:12:17.545Z,3751
2022-08-19T16:13:17.506Z,3635
2022-08-19T16:15:17.741Z,3519
2022-08-19T16:16:17.535Z,3305
2022-08-19T16:17:17.509Z,2560
2022-08-19T16:18:17.544Z,3234
2022-08-19T16:20:17.713Z,2388
2022-08-19T16:21:17.541Z,2382
2022-08-19T16:22:17.547Z,2342
2022-08-19T16:23:17.544Z,2916
2022-08-19T16:25:17.741Z,2246
2022-08-19T16:26:17.583Z,2180
2022-08-19T16:27:17.554Z,2668
2022-08-19T16:28:17.550Z,2430
2022-08-19T16:30:17.751Z,2372
2022-08-19T16:31:17.557Z,2418
2022-08-19T16:32:17.532Z,2363
2022-08-19T16:33:19.990Z,2363
2022-08-19T16:35:17.755Z,2106
2022-08-19T16:36:17.563Z,1991
2022-08-19T16:37:17.522Z,1891
2022-08-19T16:38:17.532Z,1497
2022-08-19T16:40:17.835Z,1335
2022-08-19T16:41:17.536Z,1171
2022-08-19T16:42:17.554Z,1123
2022-08-19T16:43:17.526Z,1276